Time;durP1;ratioP1;P1;durP2;ratioP2;P2;SDS_P1;SDS_P2;PMS_P1;PMS_P2;Temp;Humidity;BMP_temperature;BMP_pressure;BME280_temperature;BME280_humidity;BME280_pressure;Samples;Min_cycle;Max_cycle;Signal;HPM_P1;HPM_P2
2021/05/08 00:00:16;;;;;;;7.50;3.70;;;5.00;99.90;;;;;;5015791;28;20542;-70
2021/05/08 00:02:42;;;;;;;7.27;4.00;;;5.10;99.90;;;;;;5016267;28;20523;-70
2021/05/08 00:05:09;;;;;;;2.60;2.40;;;5.10;99.90;;;;;;5014765;28;20432;-69
2021/05/08 00:07:34;;;;;;;6.13;4.20;;;5.00;99.90;;;;;;5015738;28;20425;-69
2021/05/08 00:10:00;;;;;;;4.50;4.13;;;5.00;99.90;;;;;;5018892;28;20424;-70
2021/05/08 00:12:26;;;;;;;3.70;3.37;;;5.00;99.90;;;;;;5016941;28;20638;-70
2021/05/08 00:14:51;;;;;;;4.20;3.40;;;4.90;99.90;;;;;;5016046;28;20527;-70
2021/05/08 00:17:17;;;;;;;3.93;3.13;;;4.80;99.90;;;;;;5017316;28;20181;-69
2021/05/08 00:19:42;;;;;;;5.83;3.23;;;4.80;99.90;;;;;;5016741;28;20187;-70
2021/05/08 00:22:08;;;;;;;7.00;3.47;;;4.80;99.90;;;;;;5016352;28;20642;-70
2021/05/08 00:24:34;;;;;;;4.20;3.20;;;4.80;99.90;;;;;;5014570;28;20313;-69
2021/05/08 00:26:59;;;;;;;5.23;3.23;;;4.80;99.90;;;;;;5018075;28;20181;-70
2021/05/08 00:29:25;;;;;;;5.20;3.10;;;4.80;99.90;;;;;;5017060;28;20627;-70
2021/05/08 00:31:51;;;;;;;5.60;3.83;;;4.70;99.90;;;;;;5021380;28;20188;-69
2021/05/08 00:34:16;;;;;;;3.83;3.50;;;4.70;99.90;;;;;;5019579;28;20178;-70
2021/05/08 00:36:42;;;;;;;3.90;3.17;;;4.60;99.90;;;;;;5018030;28;20174;-70
2021/05/08 00:39:07;;;;;;;6.23;3.90;;;4.60;99.90;;;;;;5018759;28;20649;-70
2021/05/08 00:41:33;;;;;;;7.70;3.87;;;4.60;99.90;;;;;;5016638;28;20193;-70
2021/05/08 00:43:59;;;;;;;6.47;4.40;;;4.60;99.90;;;;;;5016594;28;20177;-70
2021/05/08 00:46:30;;;;;;;4.30;3.90;;;4.60;99.90;;;;;;5014241;28;20191;-69
2021/05/08 00:48:57;;;;;;;5.30;3.00;;;4.60;99.90;;;;;;5019409;28;20449;-69
2021/05/08 00:51:24;;;;;;;7.83;4.03;;;4.50;99.90;;;;;;5013828;28;20495;-69
2021/05/08 00:53:49;;;;;;;3.40;3.10;;;4.50;99.90;;;;;;5020589;28;20464;-69
2021/05/08 00:56:16;;;;;;;5.90;3.57;;;4.40;99.90;;;;;;5014347;28;20918;-69
2021/05/08 00:58:42;;;;;;;3.40;3.10;;;4.30;99.90;;;;;;5017212;28;20179;-69
2021/05/08 01:01:08;;;;;;;4.40;3.00;;;4.20;99.90;;;;;;5018050;28;20456;-69
2021/05/08 01:03:34;;;;;;;5.30;4.20;;;4.20;99.90;;;;;;5016903;28;20528;-69
2021/05/08 01:06:00;;;;;;;4.17;3.40;;;4.10;99.90;;;;;;5014914;28;20192;-69
2021/05/08 01:08:26;;;;;;;4.83;4.33;;;4.10;99.90;;;;;;5014702;28;20432;-70
2021/05/08 01:10:52;;;;;;;6.43;3.83;;;4.10;99.90;;;;;;5022825;28;20434;-69
2021/05/08 01:13:18;;;;;;;3.50;3.13;;;4.10;99.90;;;;;;5017653;28;20194;-70
2021/05/08 01:15:43;;;;;;;7.03;4.87;;;4.20;99.90;;;;;;5017630;28;20472;-70
2021/05/08 01:18:09;;;;;;;4.40;3.93;;;4.20;99.90;;;;;;5020663;28;20195;-69
2021/05/08 01:20:35;;;;;;;4.80;3.67;;;4.10;99.90;;;;;;5016544;28;20186;-70
2021/05/08 01:23:01;;;;;;;6.80;3.83;;;4.20;99.90;;;;;;5018728;28;20479;-69
2021/05/08 01:25:27;;;;;;;3.77;3.20;;;4.20;99.90;;;;;;5022023;28;20633;-69
2021/05/08 01:27:58;;;;;;;3.67;3.43;;;4.20;99.90;;;;;;5020421;28;20715;-70
2021/05/08 01:30:29;;;;;;;3.50;3.37;;;4.20;99.90;;;;;;5023265;28;20421;-69
2021/05/08 01:32:56;;;;;;;9.73;3.77;;;4.10;99.90;;;;;;5020861;28;20491;-70
2021/05/08 01:35:22;;;;;;;6.70;3.30;;;4.20;99.90;;;;;;5016649;28;20566;-69
2021/05/08 01:37:48;;;;;;;3.30;3.00;;;4.10;99.90;;;;;;5012504;28;20783;-69
2021/05/08 01:40:15;;;;;;;7.23;4.07;;;4.00;99.90;;;;;;5022142;28;20455;-69
2021/05/08 01:42:42;;;;;;;3.97;3.10;;;4.00;99.90;;;;;;5019121;28;20200;-69
2021/05/08 01:45:11;;;;;;;3.83;3.00;;;3.90;99.90;;;;;;5030636;28;20428;-70
2021/05/08 01:47:38;;;;;;;4.30;3.30;;;3.90;99.90;;;;;;5018780;28;20442;-69
2021/05/08 01:50:07;;;;;;;11.70;4.07;;;3.90;99.90;;;;;;5015449;28;20966;-69
2021/05/08 01:52:33;;;;;;;4.83;3.87;;;4.00;99.90;;;;;;5019017;28;20447;-69
2021/05/08 01:55:01;;;;;;;7.33;3.60;;;3.90;99.90;;;;;;5019024;28;20913;-70
2021/05/08 01:57:27;;;;;;;7.07;3.80;;;3.90;99.90;;;;;;5016418;28;20184;-69
2021/05/08 01:59:52;;;;;;;4.23;3.80;;;3.90;99.90;;;;;;5021317;28;20436;-69
2021/05/08 02:02:18;;;;;;;6.93;4.50;;;3.80;99.90;;;;;;5023024;28;20541;-69
2021/05/08 02:04:44;;;;;;;4.60;4.20;;;3.80;99.90;;;;;;5018642;28;20452;-69
2021/05/08 02:07:10;;;;;;;4.23;3.83;;;3.80;99.90;;;;;;5017038;28;20205;-70
2021/05/08 02:09:35;;;;;;;5.27;4.03;;;3.70;99.90;;;;;;5018660;28;20653;-69
2021/05/08 02:12:01;;;;;;;9.63;4.07;;;3.70;99.90;;;;;;5020598;28;20267;-69
2021/05/08 02:14:26;;;;;;;3.90;3.53;;;3.80;99.90;;;;;;5015913;28;20180;-69
2021/05/08 02:16:52;;;;;;;3.70;3.40;;;3.80;99.90;;;;;;5017353;28;20183;-69
2021/05/08 02:19:18;;;;;;;7.50;3.83;;;3.70;99.90;;;;;;5016048;28;20195;-69
2021/05/08 02:21:44;;;;;;;4.10;3.30;;;3.70;99.90;;;;;;5019499;28;20193;-69
2021/05/08 02:24:10;;;;;;;7.40;4.20;;;3.60;99.90;;;;;;5016529;28;20182;-69
2021/05/08 02:26:36;;;;;;;4.20;3.90;;;3.60;99.90;;;;;;5016319;28;20442;-70
2021/05/08 02:29:02;;;;;;;6.10;4.20;;;3.60;99.90;;;;;;5021732;28;20551;-69
2021/05/08 02:31:27;;;;;;;4.23;3.93;;;3.50;99.90;;;;;;5016067;28;20685;-70
2021/05/08 02:33:53;;;;;;;6.20;3.60;;;3.40;99.90;;;;;;5020542;28;21937;-69
2021/05/08 02:36:18;;;;;;;6.83;3.40;;;3.40;99.90;;;;;;5019720;28;20561;-69
2021/05/08 02:38:44;;;;;;;5.27;4.10;;;3.30;99.90;;;;;;5020305;28;20190;-69
2021/05/08 02:41:10;;;;;;;7.70;5.80;;;3.20;99.90;;;;;;5020551;28;20211;-69
2021/05/08 02:43:35;;;;;;;5.87;3.63;;;3.20;99.90;;;;;;5017961;28;20238;-69
2021/05/08 02:46:01;;;;;;;10.90;4.10;;;3.10;99.90;;;;;;5020906;28;20177;-69
2021/05/08 02:48:27;;;;;;;5.93;3.53;;;3.10;99.90;;;;;;5017384;28;20184;-69
2021/05/08 02:50:52;;;;;;;4.80;3.60;;;3.10;99.90;;;;;;5015084;28;20275;-69
2021/05/08 02:53:18;;;;;;;4.47;3.37;;;3.10;99.90;;;;;;5016437;28;20606;-69
2021/05/08 02:55:43;;;;;;;6.73;3.23;;;3.10;99.90;;;;;;5017284;28;20187;-69
2021/05/08 02:58:09;;;;;;;4.60;3.27;;;3.00;99.90;;;;;;5017987;28;20193;-69
2021/05/08 03:00:35;;;;;;;7.33;3.60;;;3.10;99.90;;;;;;5016528;28;20645;-69
2021/05/08 03:03:00;;;;;;;4.10;3.70;;;3.10;99.90;;;;;;5020245;28;20187;-69
2021/05/08 03:05:26;;;;;;;8.87;4.20;;;3.20;99.90;;;;;;5015945;28;20767;-69
2021/05/08 03:07:52;;;;;;;6.60;3.77;;;3.20;99.90;;;;;;5014792;28;20173;-69
2021/05/08 03:10:17;;;;;;;4.57;3.60;;;3.10;99.90;;;;;;5017587;28;20215;-69
2021/05/08 03:12:43;;;;;;;3.97;3.63;;;3.00;99.90;;;;;;5019397;28;20186;-69
2021/05/08 03:15:09;;;;;;;5.50;3.60;;;3.00;99.90;;;;;;5019799;28;20762;-69
2021/05/08 03:17:35;;;;;;;3.93;3.63;;;2.90;99.90;;;;;;5015918;28;20189;-69
2021/05/08 03:20:02;;;;;;;4.83;3.40;;;2.90;99.90;;;;;;5016477;28;20440;-69
2021/05/08 03:22:27;;;;;;;8.33;3.70;;;2.80;99.90;;;;;;5013158;28;20468;-69
2021/05/08 03:24:53;;;;;;;3.27;2.97;;;2.80;99.90;;;;;;5010311;28;20446;-69
2021/05/08 03:27:19;;;;;;;5.60;3.20;;;2.80;99.90;;;;;;5014749;28;20194;-69
2021/05/08 03:29:46;;;;;;;4.60;4.20;;;2.70;99.90;;;;;;5018943;28;20180;-70
2021/05/08 03:32:12;;;;;;;3.87;3.43;;;2.70;99.90;;;;;;5017825;28;20189;-69
2021/05/08 03:34:37;;;;;;;10.80;4.23;;;2.70;99.90;;;;;;5019789;28;20446;-70
2021/05/08 03:37:03;;;;;;;6.53;4.20;;;2.60;99.90;;;;;;5018094;28;20428;-70
2021/05/08 03:39:29;;;;;;;7.40;5.07;;;2.60;99.90;;;;;;5017413;28;20798;-69
2021/05/08 03:41:54;;;;;;;4.07;3.70;;;2.60;99.90;;;;;;5020503;28;20647;-69
2021/05/08 03:44:20;;;;;;;4.30;4.00;;;2.50;99.90;;;;;;5016787;28;20294;-69
2021/05/08 03:46:45;;;;;;;5.50;4.27;;;2.50;99.90;;;;;;5016520;28;20235;-69
2021/05/08 03:49:11;;;;;;;4.87;4.47;;;2.50;99.90;;;;;;5017090;28;20185;-69
2021/05/08 03:51:37;;;;;;;4.33;3.83;;;2.40;99.90;;;;;;5008517;28;20189;-69
2021/05/08 03:54:03;;;;;;;4.33;3.50;;;2.40;99.90;;;;;;5018360;28;20274;-69
2021/05/08 03:56:29;;;;;;;5.77;4.40;;;2.30;99.90;;;;;;5017213;28;20211;-69
2021/05/08 03:58:55;;;;;;;4.43;3.67;;;2.40;99.90;;;;;;5018404;28;20443;-68
2021/05/08 04:01:21;;;;;;;5.17;4.40;;;2.30;99.90;;;;;;5019380;28;20456;-69
2021/05/08 04:03:47;;;;;;;5.20;4.70;;;2.30;99.90;;;;;;5018756;28;20513;-69
2021/05/08 04:06:12;;;;;;;5.77;4.03;;;2.20;99.90;;;;;;5013367;28;20177;-68
2021/05/08 04:08:38;;;;;;;4.17;3.77;;;2.20;99.90;;;;;;5015829;28;20549;-68
2021/05/08 04:11:03;;;;;;;4.90;4.37;;;2.20;99.90;;;;;;5019068;28;20178;-69
2021/05/08 04:13:29;;;;;;;4.37;4.00;;;2.30;99.90;;;;;;5017805;28;20683;-68
2021/05/08 04:15:55;;;;;;;5.93;3.80;;;2.30;99.90;;;;;;5016546;28;20192;-69
2021/05/08 04:18:20;;;;;;;7.03;5.30;;;2.30;99.90;;;;;;5017420;28;20280;-69
2021/05/08 04:20:46;;;;;;;4.83;4.33;;;2.40;99.90;;;;;;5013061;28;20245;-69
2021/05/08 04:23:13;;;;;;;4.27;3.97;;;2.40;99.90;;;;;;5010622;28;20275;-69
2021/05/08 04:25:39;;;;;;;10.67;4.93;;;2.50;99.90;;;;;;5012960;28;20428;-69
2021/05/08 04:28:08;;;;;;;4.93;4.33;;;2.50;99.90;;;;;;5018138;28;20812;-69
2021/05/08 04:30:34;;;;;;;4.60;3.93;;;2.60;99.90;;;;;;5021730;28;20466;-68
2021/05/08 04:32:59;;;;;;;5.33;4.33;;;2.60;99.90;;;;;;5020572;28;20467;-69
2021/05/08 04:35:25;;;;;;;6.47;4.77;;;2.70;99.90;;;;;;5016893;28;20532;-69
2021/05/08 04:37:51;;;;;;;8.73;4.70;;;2.70;99.90;;;;;;5013301;28;20189;-68
2021/05/08 04:40:16;;;;;;;5.40;5.00;;;2.80;99.90;;;;;;5013679;28;20304;-69
2021/05/08 04:42:42;;;;;;;7.50;6.00;;;2.80;99.90;;;;;;5011693;28;20200;-69
2021/05/08 04:45:08;;;;;;;8.40;6.20;;;2.90;99.90;;;;;;5018840;28;20560;-68
2021/05/08 04:47:33;;;;;;;7.33;5.60;;;3.10;99.90;;;;;;5015716;28;20190;-69
2021/05/08 04:50:01;;;;;;;8.73;6.47;;;3.20;99.90;;;;;;5021407;28;20444;-69
2021/05/08 04:52:27;;;;;;;16.77;7.10;;;3.20;99.90;;;;;;5022195;28;20188;-69
2021/05/08 04:54:53;;;;;;;10.67;7.17;;;3.30;99.90;;;;;;5020003;28;20480;-69
2021/05/08 04:57:19;;;;;;;9.60;7.43;;;3.40;99.90;;;;;;5009110;28;20825;-69
2021/05/08 04:59:45;;;;;;;10.70;7.20;;;3.60;99.90;;;;;;5020358;28;20187;-69
2021/05/08 05:02:10;;;;;;;11.47;7.77;;;3.70;99.90;;;;;;5023250;28;20466;-69
2021/05/08 05:04:36;;;;;;;9.93;6.33;;;3.70;99.90;;;;;;5019376;28;20628;-69
2021/05/08 05:07:02;;;;;;;10.97;7.60;;;3.80;99.90;;;;;;5023745;28;20180;-69
2021/05/08 05:09:29;;;;;;;7.90;6.23;;;3.80;99.90;;;;;;5022318;28;20196;-69
2021/05/08 05:11:55;;;;;;;12.43;8.43;;;3.90;99.90;;;;;;5022338;28;20539;-69
2021/05/08 05:14:21;;;;;;;10.50;6.40;;;4.00;99.90;;;;;;5021342;28;20424;-69
2021/05/08 05:16:46;;;;;;;9.90;7.57;;;4.20;99.90;;;;;;5018391;28;20435;-69
2021/05/08 05:19:12;;;;;;;13.53;7.77;;;4.20;99.90;;;;;;5020575;28;20757;-69
2021/05/08 05:21:37;;;;;;;9.77;7.00;;;4.20;99.90;;;;;;5021670;28;20253;-69
2021/05/08 05:24:04;;;;;;;7.77;6.67;;;4.20;99.90;;;;;;5021217;28;20167;-69
2021/05/08 05:26:30;;;;;;;12.73;5.87;;;4.40;99.90;;;;;;5014670;28;20253;-70
2021/05/08 05:28:57;;;;;;;9.43;6.40;;;4.40;99.90;;;;;;5022537;28;20466;-69
2021/05/08 05:31:22;;;;;;;7.67;6.47;;;4.50;99.90;;;;;;5021892;28;20180;-70
2021/05/08 05:33:48;;;;;;;7.57;5.60;;;4.50;99.90;;;;;;5022011;28;20438;-70
2021/05/08 05:36:14;;;;;;;11.63;6.47;;;4.70;99.90;;;;;;5019445;28;20191;-70
2021/05/08 05:38:39;;;;;;;13.07;6.50;;;4.90;99.90;;;;;;5024327;28;20187;-69
2021/05/08 05:41:05;;;;;;;8.70;6.67;;;4.90;99.90;;;;;;5020138;28;20202;-70
2021/05/08 05:43:30;;;;;;;6.60;6.00;;;5.00;99.90;;;;;;5016246;28;20180;-70
2021/05/08 05:45:56;;;;;;;10.43;6.57;;;5.00;99.90;;;;;;5020621;28;20209;-69
2021/05/08 05:48:22;;;;;;;11.63;5.90;;;5.30;99.90;;;;;;5020379;28;20186;-69
2021/05/08 05:50:48;;;;;;;7.27;6.43;;;5.40;99.90;;;;;;5017790;28;20321;-70
2021/05/08 05:53:14;;;;;;;5.70;5.20;;;5.40;99.90;;;;;;5015943;28;20208;-70
2021/05/08 05:55:39;;;;;;;9.83;6.33;;;5.50;99.90;;;;;;5013536;28;20268;-69
2021/05/08 05:58:06;;;;;;;6.03;5.13;;;5.40;99.90;;;;;;5017259;28;20436;-70
2021/05/08 06:00:32;;;;;;;11.50;6.37;;;5.30;99.90;;;;;;5019152;28;20240;-70
2021/05/08 06:02:58;;;;;;;8.43;5.97;;;5.30;99.90;;;;;;5013223;28;20469;-70
2021/05/08 06:05:23;;;;;;;5.47;4.93;;;5.30;99.90;;;;;;5016880;28;20588;-70
2021/05/08 06:07:49;;;;;;;10.93;6.20;;;5.30;99.90;;;;;;5016526;28;20272;-70
2021/05/08 06:10:15;;;;;;;8.10;6.37;;;5.40;99.90;;;;;;5017580;28;20187;-70
2021/05/08 06:12:42;;;;;;;8.60;5.47;;;5.50;99.90;;;;;;5015392;28;20605;-70
2021/05/08 06:15:10;;;;;;;9.13;5.77;;;5.50;99.90;;;;;;5013655;28;20469;-70
2021/05/08 06:17:36;;;;;;;13.80;5.80;;;5.60;99.90;;;;;;5012711;28;20444;-70
2021/05/08 06:20:03;;;;;;;7.50;5.67;;;5.60;99.90;;;;;;5019055;28;20904;-70
2021/05/08 06:22:29;;;;;;;9.10;6.33;;;5.70;99.90;;;;;;5010690;28;20461;-70
2021/05/08 06:24:55;;;;;;;7.77;5.50;;;5.80;99.90;;;;;;5007243;28;20440;-70
2021/05/08 06:27:22;;;;;;;9.13;5.97;;;5.80;99.90;;;;;;5020886;28;20182;-70
2021/05/08 06:29:48;;;;;;;10.03;5.27;;;5.80;99.90;;;;;;5017152;28;20836;-70
2021/05/08 06:32:13;;;;;;;6.43;5.70;;;5.90;99.90;;;;;;5016332;28;20513;-70
2021/05/08 06:34:39;;;;;;;7.33;4.80;;;5.90;99.90;;;;;;5010557;28;20327;-70
2021/05/08 06:37:05;;;;;;;7.47;5.33;;;6.00;99.90;;;;;;5019347;28;20276;-70
2021/05/08 06:39:32;;;;;;;8.23;5.50;;;6.30;99.90;;;;;;5016716;28;20537;-70
2021/05/08 06:41:57;;;;;;;15.00;5.43;;;6.40;99.90;;;;;;5018853;28;20794;-70
2021/05/08 06:44:26;;;;;;;5.93;5.33;;;6.70;99.90;;;;;;5011754;28;20443;-70
2021/05/08 06:46:55;;;;;;;14.40;6.10;;;6.60;99.90;;;;;;5011921;28;20189;-70
2021/05/08 06:49:21;;;;;;;8.83;5.23;;;6.50;99.90;;;;;;5018103;28;20441;-71
2021/05/08 06:51:47;;;;;;;6.63;5.43;;;6.60;99.90;;;;;;5016730;28;20447;-70
2021/05/08 06:54:13;;;;;;;6.20;5.60;;;6.60;99.90;;;;;;5017296;28;20441;-70
2021/05/08 06:56:38;;;;;;;6.87;5.10;;;6.80;99.90;;;;;;5015901;28;20223;-70
2021/05/08 06:59:04;;;;;;;12.53;6.13;;;6.90;99.90;;;;;;5006729;28;20276;-70
2021/05/08 07:01:30;;;;;;;9.37;5.27;;;7.00;99.90;;;;;;5006570;28;20207;-70
2021/05/08 07:03:56;;;;;;;11.00;5.10;;;7.20;99.90;;;;;;5008284;28;20259;-70
2021/05/08 07:06:24;;;;;;;12.07;4.80;;;7.30;99.90;;;;;;5006126;28;20240;-70
2021/05/08 07:08:50;;;;;;;11.33;5.17;;;7.30;99.90;;;;;;5005442;28;20433;-70
2021/05/08 07:11:15;;;;;;;12.70;4.97;;;7.30;99.90;;;;;;5003372;28;20429;-70
2021/05/08 07:13:41;;;;;;;5.73;4.50;;;7.50;99.90;;;;;;5009233;28;20616;-70
2021/05/08 07:16:06;;;;;;;6.00;4.70;;;7.50;99.90;;;;;;5012602;28;20620;-70
2021/05/08 07:18:32;;;;;;;6.27;4.50;;;7.50;99.90;;;;;;5014079;28;20201;-70
2021/05/08 07:20:58;;;;;;;12.60;4.40;;;7.50;99.90;;;;;;5016596;28;20285;-70
2021/05/08 07:23:23;;;;;;;5.60;4.90;;;7.80;99.90;;;;;;5012964;28;20380;-71
2021/05/08 07:25:49;;;;;;;7.20;3.17;;;7.80;99.90;;;;;;5009504;28;20192;-70
2021/05/08 07:28:20;;;;;;;5.20;3.30;;;7.90;99.90;;;;;;5012803;28;20540;-70
2021/05/08 07:30:47;;;;;;;5.50;3.50;;;8.00;99.90;;;;;;5012462;28;20178;-70
2021/05/08 07:33:14;;;;;;;3.80;3.30;;;8.10;99.90;;;;;;5018366;28;20763;-70
2021/05/08 07:35:41;;;;;;;5.33;3.30;;;8.00;99.90;;;;;;5017302;28;20527;-70
2021/05/08 07:38:08;;;;;;;6.03;2.40;;;8.10;99.90;;;;;;5019152;28;20433;-70
2021/05/08 07:40:34;;;;;;;8.60;4.17;;;8.10;99.90;;;;;;5017252;28;20444;-70
2021/05/08 07:43:01;;;;;;;7.30;4.47;;;8.40;99.90;;;;;;5013691;28;21029;-70
2021/05/08 07:45:27;;;;;;;3.30;3.00;;;8.40;99.90;;;;;;5013963;28;20461;-70
2021/05/08 07:47:53;;;;;;;6.63;3.30;;;8.40;99.90;;;;;;5023944;28;20444;-70
2021/05/08 07:50:20;;;;;;;5.30;3.90;;;8.50;99.90;;;;;;5007088;28;20494;-70
2021/05/08 07:52:46;;;;;;;8.53;3.70;;;8.50;99.90;;;;;;5014228;28;20202;-70
2021/05/08 07:55:12;;;;;;;4.27;3.40;;;8.50;99.90;;;;;;5023534;28;20445;-70
2021/05/08 07:57:39;;;;;;;4.53;3.07;;;8.50;99.90;;;;;;5012615;28;20217;-70
2021/05/08 08:00:07;;;;;;;4.87;3.40;;;8.60;99.90;;;;;;5011990;28;20965;-70
2021/05/08 08:02:33;;;;;;;3.10;2.40;;;8.80;99.90;;;;;;5002727;28;20497;-70
2021/05/08 08:05:00;;;;;;;4.33;2.60;;;8.80;99.90;;;;;;5011139;28;20773;-71
2021/05/08 08:07:26;;;;;;;5.07;2.83;;;8.90;99.90;;;;;;5011348;28;20434;-70
2021/05/08 08:09:52;;;;;;;4.97;2.53;;;9.20;99.90;;;;;;5015160;28;20821;-71
2021/05/08 08:12:17;;;;;;;8.87;3.17;;;9.30;99.90;;;;;;5016911;28;20187;-70
2021/05/08 08:14:43;;;;;;;5.73;3.13;;;9.30;99.90;;;;;;5014046;28;20183;-71
2021/05/08 08:17:08;;;;;;;4.33;3.40;;;9.40;99.90;;;;;;5014542;28;20260;-71
2021/05/08 08:19:34;;;;;;;3.83;2.80;;;9.40;99.90;;;;;;5011353;28;20621;-70
2021/05/08 08:22:00;;;;;;;2.67;2.47;;;9.40;99.90;;;;;;5011099;28;20615;-71
2021/05/08 08:24:25;;;;;;;4.63;2.57;;;9.30;99.90;;;;;;5011875;28;20181;-71
2021/05/08 08:26:51;;;;;;;5.77;2.70;;;9.30;99.90;;;;;;5014737;28;20183;-70
2021/05/08 08:29:17;;;;;;;2.50;2.30;;;9.30;99.90;;;;;;5014078;28;20182;-70
2021/05/08 08:31:44;;;;;;;6.97;2.80;;;9.60;99.90;;;;;;5018212;28;20528;-71
2021/05/08 08:34:10;;;;;;;3.57;2.53;;;9.80;99.90;;;;;;5011712;28;20441;-71
2021/05/08 08:36:39;;;;;;;4.70;2.93;;;9.90;99.90;;;;;;5012538;28;20941;-71
2021/05/08 08:39:05;;;;;;;4.30;2.27;;;10.30;99.90;;;;;;5017645;28;20197;-71
2021/05/08 08:41:31;;;;;;;3.50;2.70;;;10.40;99.90;;;;;;5010188;28;20578;-71
2021/05/08 08:43:57;;;;;;;2.60;2.40;;;10.30;99.90;;;;;;5012656;28;20524;-70
2021/05/08 08:46:22;;;;;;;3.03;2.00;;;10.30;99.90;;;;;;5006736;28;20211;-71
2021/05/08 08:48:49;;;;;;;2.83;2.57;;;10.40;99.90;;;;;;5010591;28;20183;-70
2021/05/08 08:51:15;;;;;;;2.23;2.03;;;10.40;99.90;;;;;;5009085;28;20220;-70
2021/05/08 08:53:41;;;;;;;4.57;2.37;;;10.50;99.90;;;;;;5027662;28;20831;-70
2021/05/08 08:56:08;;;;;;;3.87;2.20;;;10.50;99.90;;;;;;5004718;28;20930;-70
2021/05/08 08:58:37;;;;;;;2.80;1.83;;;10.50;99.90;;;;;;5013225;28;20436;-70
2021/05/08 09:01:05;;;;;;;3.80;2.00;;;10.60;99.90;;;;;;5016639;28;20900;-70
2021/05/08 09:03:31;;;;;;;3.70;2.20;;;10.70;99.90;;;;;;5010826;28;20949;-70
2021/05/08 09:06:00;;;;;;;3.73;1.90;;;10.90;99.90;;;;;;5011658;28;20515;-70
2021/05/08 09:08:26;;;;;;;4.30;2.40;;;10.90;99.90;;;;;;5014172;28;20456;-70
2021/05/08 09:10:51;;;;;;;4.70;1.97;;;11.10;99.90;;;;;;5013140;28;20460;-71
2021/05/08 09:13:20;;;;;;;3.20;2.10;;;11.30;99.90;;;;;;5008027;28;20439;-71
2021/05/08 09:15:47;;;;;;;2.93;1.80;;;11.50;99.90;;;;;;5005069;28;20525;-70
2021/05/08 09:18:34;;;;;;;5.00;2.23;;;11.50;99.90;;;;;;5005898;28;20452;-70
2021/05/08 09:21:02;;;;;;;2.20;2.10;;;11.60;99.90;;;;;;5005151;28;20450;-71
2021/05/08 09:23:33;;;;;;;2.33;1.60;;;11.60;99.90;;;;;;5022219;28;20729;-71
2021/05/08 09:25:58;;;;;;;4.73;1.93;;;11.40;99.90;;;;;;5011297;28;20429;-71
2021/05/08 09:28:26;;;;;;;2.80;2.30;;;11.40;99.90;;;;;;5012660;28;20452;-71
2021/05/08 09:30:52;;;;;;;6.10;3.10;;;11.60;99.90;;;;;;5016075;28;20181;-71
2021/05/08 09:33:22;;;;;;;3.30;2.43;;;11.80;99.90;;;;;;5020214;28;20448;-70
2021/05/08 09:36:07;;;;;;;2.60;2.00;;;12.00;99.90;;;;;;5012719;28;20441;-70
2021/05/08 09:38:37;;;;;;;2.17;1.80;;;12.00;99.90;;;;;;5014350;28;20778;-70
2021/05/08 09:41:07;;;;;;;2.90;2.37;;;12.00;99.90;;;;;;5019022;28;20490;-71
2021/05/08 09:43:34;;;;;;;2.20;2.00;;;12.20;99.90;;;;;;5013860;28;20435;-71
2021/05/08 09:46:00;;;;;;;3.13;2.77;;;12.30;99.90;;;;;;5013853;28;20440;-71
2021/05/08 09:48:31;;;;;;;2.83;2.63;;;12.60;99.90;;;;;;5012364;28;21007;-71
2021/05/08 09:51:22;;;;;;;3.43;1.70;;;12.70;99.90;;;;;;5014384;28;20421;-71
2021/05/08 09:54:11;;;;;;;2.53;2.30;;;12.70;99.90;;;;;;5018375;28;20445;-71
2021/05/08 09:56:48;;;;;;;3.50;2.80;;;12.90;99.90;;;;;;5017105;28;20878;-71
2021/05/08 09:59:36;;;;;;;3.63;3.10;;;12.70;99.90;;;;;;5019187;28;20428;-74
2021/05/08 10:02:05;;;;;;;2.63;2.20;;;12.60;99.90;;;;;;5016824;28;20449;-73
2021/05/08 10:04:45;;;;;;;3.30;3.00;;;12.50;99.90;;;;;;5018620;28;20544;-74
2021/05/08 10:07:10;;;;;;;3.00;2.80;;;12.30;99.90;;;;;;5014754;28;20431;-74
2021/05/08 10:09:37;;;;;;;5.23;2.63;;;12.30;99.90;;;;;;5003466;28;20438;-74
2021/05/08 10:12:07;;;;;;;2.40;2.20;;;12.70;99.90;;;;;;5011658;28;20194;-74
2021/05/08 10:14:35;;;;;;;3.67;2.53;;;13.00;99.90;;;;;;5012160;28;20473;-74
2021/05/08 10:17:01;;;;;;;4.13;3.73;;;13.30;99.90;;;;;;5009072;28;20460;-75
2021/05/08 10:19:30;;;;;;;2.30;2.10;;;13.60;99.90;;;;;;5015553;28;20906;-74
2021/05/08 10:22:02;;;;;;;2.73;2.57;;;13.50;99.90;;;;;;5013102;28;20538;-75
2021/05/08 10:24:28;;;;;;;4.77;2.83;;;13.00;99.90;;;;;;5016545;28;20443;-74
2021/05/08 10:26:57;;;;;;;3.43;2.90;;;13.10;99.90;;;;;;5014237;28;20543;-75
2021/05/08 10:29:28;;;;;;;2.80;2.60;;;13.30;99.90;;;;;;5015504;28;20441;-74
2021/05/08 10:31:59;;;;;;;3.10;2.37;;;13.40;99.90;;;;;;5018677;28;21064;-74
2021/05/08 10:34:38;;;;;;;3.60;3.00;;;13.60;99.90;;;;;;5015232;28;20484;-73
2021/05/08 10:37:12;;;;;;;3.93;2.80;;;13.80;99.90;;;;;;5011023;28;20886;-73
2021/05/08 10:40:06;;;;;;;6.43;3.20;;;14.10;99.90;;;;;;5011307;28;20459;-73
2021/05/08 10:42:40;;;;;;;4.07;2.80;;;14.30;99.90;;;;;;5015338;28;20461;-73
2021/05/08 10:45:32;;;;;;;2.90;2.70;;;14.30;99.90;;;;;;5019991;28;20422;-73
2021/05/08 10:47:59;;;;;;;4.10;2.60;;;14.60;99.90;;;;;;5011045;28;20464;-74
2021/05/08 10:50:26;;;;;;;9.13;3.33;;;14.80;99.90;;;;;;5014013;28;20445;-73
2021/05/08 10:53:04;;;;;;;5.33;3.20;;;14.80;98.40;;;;;;5018400;28;20846;-73
2021/05/08 10:55:58;;;;;;;3.10;2.80;;;14.50;98.20;;;;;;5022342;28;20437;-74
2021/05/08 10:58:24;;;;;;;2.93;2.70;;;14.70;99.00;;;;;;5018506;28;20784;-74
2021/05/08 11:01:16;;;;;;;8.00;3.27;;;14.80;99.60;;;;;;5016204;28;20467;-74
2021/05/08 11:03:48;;;;;;;5.53;2.80;;;15.10;99.90;;;;;;5002232;28;20500;-73
2021/05/08 11:06:15;;;;;;;6.77;2.63;;;15.50;99.70;;;;;;5005917;28;20430;-74
2021/05/08 11:08:46;;;;;;;5.00;2.80;;;15.50;98.50;;;;;;5014502;28;20441;-74
2021/05/08 11:11:16;;;;;;;2.70;2.50;;;15.30;97.50;;;;;;5012504;28;20437;-74
2021/05/08 11:13:42;;;;;;;4.70;2.90;;;15.30;98.90;;;;;;5015550;28;20517;-75
2021/05/08 11:16:12;;;;;;;23.53;5.10;;;15.50;98.10;;;;;;5014805;28;20536;-75
2021/05/08 11:18:44;;;;;;;5.00;2.73;;;15.30;98.20;;;;;;5018197;28;20182;-74
2021/05/08 11:21:18;;;;;;;2.93;2.20;;;15.20;97.60;;;;;;5013418;28;20459;-74
2021/05/08 11:23:44;;;;;;;2.80;2.60;;;15.20;97.80;;;;;;5007594;28;20486;-74
2021/05/08 11:26:28;;;;;;;3.10;2.80;;;15.20;96.60;;;;;;5010282;28;20434;-74
2021/05/08 11:29:19;;;;;;;2.90;2.30;;;15.30;98.10;;;;;;5011764;28;20858;-74
2021/05/08 11:31:47;;;;;;;4.53;2.67;;;15.50;97.10;;;;;;5013487;28;20904;-74
2021/05/08 11:34:26;;;;;;;3.00;2.30;;;15.50;94.20;;;;;;5014757;28;20433;-74
2021/05/08 11:36:57;;;;;;;3.40;3.10;;;15.70;96.60;;;;;;5017337;28;20435;-74
2021/05/08 11:39:35;;;;;;;2.40;2.30;;;15.70;96.80;;;;;;5013912;28;20449;-74
2021/05/08 11:42:20;;;;;;;2.80;2.40;;;15.60;95.20;;;;;;5005113;28;20787;-74
2021/05/08 11:44:52;;;;;;;4.40;2.60;;;15.50;94.70;;;;;;4997999;28;20520;-73
2021/05/08 11:47:31;;;;;;;3.40;2.30;;;15.30;95.80;;;;;;5004843;28;20436;-74
2021/05/08 11:50:00;;;;;;;3.30;2.57;;;15.30;94.30;;;;;;5006660;28;20509;-74
2021/05/08 11:52:39;;;;;;;4.70;2.97;;;15.40;95.70;;;;;;5007840;28;20525;-74
2021/05/08 11:55:17;;;;;;;2.70;2.40;;;15.60;94.20;;;;;;5028617;28;21016;-74
2021/05/08 11:58:03;;;;;;;4.50;2.63;;;15.40;94.40;;;;;;5005908;28;20478;-73
2021/05/08 12:00:31;;;;;;;2.60;2.40;;;15.20;92.50;;;;;;5007486;28;20429;-72
2021/05/08 12:03:11;;;;;;;2.33;2.10;;;15.00;92.60;;;;;;5010157;28;20452;-74
2021/05/08 12:05:38;;;;;;;3.10;1.97;;;14.90;93.70;;;;;;5009452;28;20437;-74
2021/05/08 12:08:04;;;;;;;3.33;2.50;;;15.00;94.40;;;;;;5013514;28;20802;-73
2021/05/08 12:10:33;;;;;;;2.63;2.43;;;15.10;94.40;;;;;;5014661;28;20433;-73
2021/05/08 12:12:59;;;;;;;3.47;2.80;;;15.30;92.90;;;;;;5017581;28;20520;-72
2021/05/08 12:15:36;;;;;;;2.70;2.50;;;15.40;93.90;;;;;;5015362;28;20544;-72
2021/05/08 12:18:04;;;;;;;3.40;2.37;;;15.30;92.60;;;;;;5010686;28;20644;-73
2021/05/08 12:20:32;;;;;;;3.77;3.33;;;15.40;94.50;;;;;;5008622;28;20449;-72
2021/05/08 12:23:01;;;;;;;4.87;3.00;;;15.50;93.50;;;;;;5017696;28;20576;-74
2021/05/08 12:25:28;;;;;;;3.83;2.67;;;15.50;92.30;;;;;;5004019;28;20522;-73
2021/05/08 12:28:20;;;;;;;3.20;2.90;;;15.40;93.90;;;;;;5002045;28;20606;-74
2021/05/08 12:30:48;;;;;;;3.00;2.80;;;15.30;92.40;;;;;;5005804;28;20421;-74
2021/05/08 12:33:24;;;;;;;3.03;2.83;;;15.50;92.20;;;;;;5012953;28;20431;-74
2021/05/08 12:35:52;;;;;;;3.10;2.90;;;15.90;91.50;;;;;;5015602;28;20429;-74
2021/05/08 12:38:21;;;;;;;3.73;2.83;;;16.00;92.00;;;;;;5017526;28;20428;-71
2021/05/08 12:40:48;;;;;;;3.03;2.83;;;15.70;92.10;;;;;;5020803;28;20537;-71
2021/05/08 12:43:28;;;;;;;4.00;3.03;;;15.70;91.30;;;;;;5016911;28;20429;-71
2021/05/08 12:46:11;;;;;;;3.90;3.60;;;15.90;92.10;;;;;;5010415;28;20488;-71
2021/05/08 12:48:43;;;;;;;6.20;3.20;;;16.00;92.50;;;;;;5016705;28;20441;-72
2021/05/08 12:51:33;;;;;;;3.03;2.80;;;15.90;91.10;;;;;;5015488;28;20902;-73
2021/05/08 12:54:17;;;;;;;3.57;3.37;;;15.80;92.10;;;;;;5017182;28;20436;-72
2021/05/08 12:56:43;;;;;;;3.03;2.60;;;15.70;92.00;;;;;;5006562;28;20757;-72